sensor_id;sensor_type;location;lat;lon;timestamp;P1;durP1;ratioP1;P2;durP2;ratioP2
16330;SDS011;8275;48.206;16.340;2024-02-26T00:00:04;4.63;;;2.95;;
16330;SDS011;8275;48.206;16.340;2024-02-26T00:02:36;3.58;;;2.45;;
16330;SDS011;8275;48.206;16.340;2024-02-26T00:05:06;3.80;;;2.75;;
16330;SDS011;8275;48.206;16.340;2024-02-26T00:07:35;2.00;;;1.85;;
16330;SDS011;8275;48.206;16.340;2024-02-26T00:10:05;3.65;;;2.90;;
16330;SDS011;8275;48.206;16.340;2024-02-26T00:12:36;3.20;;;2.90;;
16330;SDS011;8275;48.206;16.340;2024-02-26T00:15:07;3.38;;;2.17;;
16330;SDS011;8275;48.206;16.340;2024-02-26T00:17:37;3.63;;;3.00;;
16330;SDS011;8275;48.206;16.340;2024-02-26T00:20:07;3.15;;;2.20;;
16330;SDS011;8275;48.206;16.340;2024-02-26T00:22:38;2.65;;;2.28;;
16330;SDS011;8275;48.206;16.340;2024-02-26T00:25:06;5.38;;;3.50;;
16330;SDS011;8275;48.206;16.340;2024-02-26T00:27:37;3.38;;;2.95;;
16330;SDS011;8275;48.206;16.340;2024-02-26T00:30:07;4.70;;;2.67;;
16330;SDS011;8275;48.206;16.340;2024-02-26T00:32:37;2.15;;;2.03;;
16330;SDS011;8275;48.206;16.340;2024-02-26T00:35:06;2.17;;;2.03;;
16330;SDS011;8275;48.206;16.340;2024-02-26T00:37:36;2.53;;;2.33;;
16330;SDS011;8275;48.206;16.340;2024-02-26T00:40:04;3.47;;;2.10;;
16330;SDS011;8275;48.206;16.340;2024-02-26T00:42:36;3.47;;;2.53;;
16330;SDS011;8275;48.206;16.340;2024-02-26T00:45:05;2.55;;;2.33;;
16330;SDS011;8275;48.206;16.340;2024-02-26T00:47:35;4.53;;;2.28;;
16330;SDS011;8275;48.206;16.340;2024-02-26T00:50:04;3.75;;;2.67;;
16330;SDS011;8275;48.206;16.340;2024-02-26T00:52:34;6.88;;;2.88;;
16330;SDS011;8275;48.206;16.340;2024-02-26T00:55:03;3.55;;;3.25;;
16330;SDS011;8275;48.206;16.340;2024-02-26T00:57:33;2.60;;;2.33;;
16330;SDS011;8275;48.206;16.340;2024-02-26T01:00:04;6.47;;;3.15;;
16330;SDS011;8275;48.206;16.340;2024-02-26T01:02:35;3.28;;;2.97;;
16330;SDS011;8275;48.206;16.340;2024-02-26T01:05:05;2.63;;;2.40;;
16330;SDS011;8275;48.206;16.340;2024-02-26T01:07:35;4.07;;;3.17;;
16330;SDS011;8275;48.206;16.340;2024-02-26T01:10:04;3.70;;;3.22;;
16330;SDS011;8275;48.206;16.340;2024-02-26T01:12:34;4.30;;;2.97;;
16330;SDS011;8275;48.206;16.340;2024-02-26T01:15:04;6.00;;;3.30;;
16330;SDS011;8275;48.206;16.340;2024-02-26T01:17:35;4.22;;;2.28;;
16330;SDS011;8275;48.206;16.340;2024-02-26T01:20:05;3.65;;;2.75;;
16330;SDS011;8275;48.206;16.340;2024-02-26T01:22:36;3.03;;;2.72;;
16330;SDS011;8275;48.206;16.340;2024-02-26T01:25:05;4.55;;;3.60;;
16330;SDS011;8275;48.206;16.340;2024-02-26T01:27:35;3.35;;;3.15;;
16330;SDS011;8275;48.206;16.340;2024-02-26T01:30:08;3.78;;;3.28;;
16330;SDS011;8275;48.206;16.340;2024-02-26T01:32:38;6.57;;;3.53;;
16330;SDS011;8275;48.206;16.340;2024-02-26T01:35:07;3.92;;;3.28;;
16330;SDS011;8275;48.206;16.340;2024-02-26T01:37:38;5.80;;;3.55;;
16330;SDS011;8275;48.206;16.340;2024-02-26T01:40:08;4.00;;;3.60;;
16330;SDS011;8275;48.206;16.340;2024-02-26T01:42:38;4.65;;;3.53;;
16330;SDS011;8275;48.206;16.340;2024-02-26T01:45:09;3.55;;;2.92;;
16330;SDS011;8275;48.206;16.340;2024-02-26T01:47:48;5.55;;;3.58;;
16330;SDS011;8275;48.206;16.340;2024-02-26T01:50:19;3.38;;;3.08;;
16330;SDS011;8275;48.206;16.340;2024-02-26T01:52:49;3.22;;;2.72;;
16330;SDS011;8275;48.206;16.340;2024-02-26T01:55:18;3.83;;;2.97;;
16330;SDS011;8275;48.206;16.340;2024-02-26T01:57:48;3.92;;;3.50;;
16330;SDS011;8275;48.206;16.340;2024-02-26T02:00:20;3.55;;;3.20;;
16330;SDS011;8275;48.206;16.340;2024-02-26T02:02:49;5.97;;;3.85;;
16330;SDS011;8275;48.206;16.340;2024-02-26T02:05:21;3.88;;;2.85;;
16330;SDS011;8275;48.206;16.340;2024-02-26T02:07:50;3.55;;;3.17;;
16330;SDS011;8275;48.206;16.340;2024-02-26T02:10:19;10.18;;;3.53;;
16330;SDS011;8275;48.206;16.340;2024-02-26T02:12:52;4.25;;;3.85;;
16330;SDS011;8275;48.206;16.340;2024-02-26T02:15:22;4.80;;;3.40;;
16330;SDS011;8275;48.206;16.340;2024-02-26T02:17:50;2.95;;;2.75;;
16330;SDS011;8275;48.206;16.340;2024-02-26T02:20:19;3.80;;;3.47;;
16330;SDS011;8275;48.206;16.340;2024-02-26T02:22:53;3.63;;;2.97;;
16330;SDS011;8275;48.206;16.340;2024-02-26T02:25:22;3.30;;;2.92;;
16330;SDS011;8275;48.206;16.340;2024-02-26T02:27:51;3.88;;;3.28;;
16330;SDS011;8275;48.206;16.340;2024-02-26T02:30:21;2.88;;;2.67;;
16330;SDS011;8275;48.206;16.340;2024-02-26T02:32:51;3.58;;;3.13;;
16330;SDS011;8275;48.206;16.340;2024-02-26T02:35:20;3.42;;;3.10;;
16330;SDS011;8275;48.206;16.340;2024-02-26T02:37:51;11.75;;;3.35;;
16330;SDS011;8275;48.206;16.340;2024-02-26T02:40:20;4.70;;;3.22;;
16330;SDS011;8275;48.206;16.340;2024-02-26T02:42:48;2.95;;;2.65;;
16330;SDS011;8275;48.206;16.340;2024-02-26T02:45:17;4.10;;;3.47;;
16330;SDS011;8275;48.206;16.340;2024-02-26T02:47:45;3.42;;;3.10;;
16330;SDS011;8275;48.206;16.340;2024-02-26T02:50:14;4.55;;;3.40;;
16330;SDS011;8275;48.206;16.340;2024-02-26T02:52:43;4.57;;;3.33;;
16330;SDS011;8275;48.206;16.340;2024-02-26T02:55:13;4.00;;;3.17;;
16330;SDS011;8275;48.206;16.340;2024-02-26T02:57:41;4.95;;;2.72;;
16330;SDS011;8275;48.206;16.340;2024-02-26T03:00:11;4.68;;;3.22;;
16330;SDS011;8275;48.206;16.340;2024-02-26T03:02:40;3.17;;;2.58;;
16330;SDS011;8275;48.206;16.340;2024-02-26T03:05:09;2.50;;;2.30;;
16330;SDS011;8275;48.206;16.340;2024-02-26T03:07:38;3.53;;;2.90;;
16330;SDS011;8275;48.206;16.340;2024-02-26T03:10:07;4.32;;;2.45;;
16330;SDS011;8275;48.206;16.340;2024-02-26T03:12:37;2.38;;;2.17;;
16330;SDS011;8275;48.206;16.340;2024-02-26T03:15:05;2.40;;;2.20;;
16330;SDS011;8275;48.206;16.340;2024-02-26T03:17:35;3.00;;;2.78;;
16330;SDS011;8275;48.206;16.340;2024-02-26T03:20:04;4.28;;;3.42;;
16330;SDS011;8275;48.206;16.340;2024-02-26T03:22:35;2.97;;;2.30;;
16330;SDS011;8275;48.206;16.340;2024-02-26T03:25:03;3.90;;;3.58;;
16330;SDS011;8275;48.206;16.340;2024-02-26T03:27:33;4.72;;;2.88;;
16330;SDS011;8275;48.206;16.340;2024-02-26T03:30:03;2.80;;;2.50;;
16330;SDS011;8275;48.206;16.340;2024-02-26T03:32:34;4.03;;;2.60;;
16330;SDS011;8275;48.206;16.340;2024-02-26T03:35:03;3.42;;;3.13;;
16330;SDS011;8275;48.206;16.340;2024-02-26T03:37:33;3.42;;;2.35;;
16330;SDS011;8275;48.206;16.340;2024-02-26T03:40:02;3.20;;;2.60;;
16330;SDS011;8275;48.206;16.340;2024-02-26T03:42:32;9.20;;;2.67;;
16330;SDS011;8275;48.206;16.340;2024-02-26T03:45:00;3.42;;;2.50;;
16330;SDS011;8275;48.206;16.340;2024-02-26T03:47:30;4.45;;;3.03;;
16330;SDS011;8275;48.206;16.340;2024-02-26T03:49:59;2.50;;;2.10;;
16330;SDS011;8275;48.206;16.340;2024-02-26T03:52:27;3.97;;;3.40;;
16330;SDS011;8275;48.206;16.340;2024-02-26T03:54:56;2.60;;;2.15;;
16330;SDS011;8275;48.206;16.340;2024-02-26T03:57:24;2.45;;;2.25;;
16330;SDS011;8275;48.206;16.340;2024-02-26T03:59:53;2.47;;;2.25;;
16330;SDS011;8275;48.206;16.340;2024-02-26T04:02:21;5.30;;;2.63;;
16330;SDS011;8275;48.206;16.340;2024-02-26T04:04:51;2.90;;;2.70;;
16330;SDS011;8275;48.206;16.340;2024-02-26T04:07:20;3.45;;;2.40;;
16330;SDS011;8275;48.206;16.340;2024-02-26T04:09:48;3.22;;;2.65;;
16330;SDS011;8275;48.206;16.340;2024-02-26T04:12:16;3.90;;;2.97;;
16330;SDS011;8275;48.206;16.340;2024-02-26T04:14:45;3.20;;;2.65;;
16330;SDS011;8275;48.206;16.340;2024-02-26T04:17:14;3.90;;;3.00;;
16330;SDS011;8275;48.206;16.340;2024-02-26T04:19:42;3.55;;;2.55;;
16330;SDS011;8275;48.206;16.340;2024-02-26T04:22:12;9.88;;;2.95;;
16330;SDS011;8275;48.206;16.340;2024-02-26T04:24:41;4.57;;;3.33;;
16330;SDS011;8275;48.206;16.340;2024-02-26T04:27:09;4.20;;;3.38;;
16330;SDS011;8275;48.206;16.340;2024-02-26T04:29:37;3.50;;;3.13;;
16330;SDS011;8275;48.206;16.340;2024-02-26T04:32:06;4.40;;;3.08;;
16330;SDS011;8275;48.206;16.340;2024-02-26T04:34:34;3.30;;;2.65;;
16330;SDS011;8275;48.206;16.340;2024-02-26T04:37:04;5.28;;;3.03;;
16330;SDS011;8275;48.206;16.340;2024-02-26T04:39:33;4.35;;;2.40;;
16330;SDS011;8275;48.206;16.340;2024-02-26T04:42:02;3.38;;;3.00;;
16330;SDS011;8275;48.206;16.340;2024-02-26T04:44:31;2.92;;;2.67;;
16330;SDS011;8275;48.206;16.340;2024-02-26T04:46:59;6.65;;;3.03;;
16330;SDS011;8275;48.206;16.340;2024-02-26T04:49:28;3.45;;;3.15;;
16330;SDS011;8275;48.206;16.340;2024-02-26T04:51:57;4.05;;;2.65;;
16330;SDS011;8275;48.206;16.340;2024-02-26T04:54:25;4.72;;;3.15;;
16330;SDS011;8275;48.206;16.340;2024-02-26T04:56:55;4.25;;;3.30;;
16330;SDS011;8275;48.206;16.340;2024-02-26T04:59:23;5.80;;;3.55;;
16330;SDS011;8275;48.206;16.340;2024-02-26T05:01:52;5.57;;;3.15;;
16330;SDS011;8275;48.206;16.340;2024-02-26T05:04:20;3.85;;;3.40;;
16330;SDS011;8275;48.206;16.340;2024-02-26T05:06:49;3.47;;;3.08;;
16330;SDS011;8275;48.206;16.340;2024-02-26T05:09:18;5.63;;;4.47;;
16330;SDS011;8275;48.206;16.340;2024-02-26T05:11:46;6.85;;;4.22;;
16330;SDS011;8275;48.206;16.340;2024-02-26T05:14:16;4.63;;;3.70;;
16330;SDS011;8275;48.206;16.340;2024-02-26T05:16:45;4.57;;;4.03;;
16330;SDS011;8275;48.206;16.340;2024-02-26T05:19:13;4.70;;;4.25;;
16330;SDS011;8275;48.206;16.340;2024-02-26T05:21:42;4.78;;;3.67;;
16330;SDS011;8275;48.206;16.340;2024-02-26T05:24:11;4.07;;;3.65;;
16330;SDS011;8275;48.206;16.340;2024-02-26T05:26:42;4.63;;;3.67;;
16330;SDS011;8275;48.206;16.340;2024-02-26T05:29:10;4.35;;;3.70;;
16330;SDS011;8275;48.206;16.340;2024-02-26T05:31:41;6.68;;;4.03;;
16330;SDS011;8275;48.206;16.340;2024-02-26T05:34:10;5.15;;;4.28;;
16330;SDS011;8275;48.206;16.340;2024-02-26T05:36:38;3.58;;;3.28;;
16330;SDS011;8275;48.206;16.340;2024-02-26T05:39:07;7.13;;;4.22;;
16330;SDS011;8275;48.206;16.340;2024-02-26T05:41:42;5.22;;;4.38;;
16330;SDS011;8275;48.206;16.340;2024-02-26T05:44:11;4.38;;;3.55;;
16330;SDS011;8275;48.206;16.340;2024-02-26T05:46:42;5.45;;;4.70;;
16330;SDS011;8275;48.206;16.340;2024-02-26T05:49:10;4.47;;;4.07;;
16330;SDS011;8275;48.206;16.340;2024-02-26T05:51:39;6.30;;;3.95;;
16330;SDS011;8275;48.206;16.340;2024-02-26T05:54:08;4.80;;;4.35;;
16330;SDS011;8275;48.206;16.340;2024-02-26T05:56:36;7.45;;;4.38;;
16330;SDS011;8275;48.206;16.340;2024-02-26T05:59:05;5.05;;;4.55;;
16330;SDS011;8275;48.206;16.340;2024-02-26T06:01:33;4.53;;;4.07;;
16330;SDS011;8275;48.206;16.340;2024-02-26T06:04:03;7.15;;;3.78;;
16330;SDS011;8275;48.206;16.340;2024-02-26T06:06:32;5.15;;;4.65;;
16330;SDS011;8275;48.206;16.340;2024-02-26T06:09:00;6.20;;;4.10;;
16330;SDS011;8275;48.206;16.340;2024-02-26T06:11:31;6.10;;;4.25;;
16330;SDS011;8275;48.206;16.340;2024-02-26T06:14:00;6.22;;;3.90;;
16330;SDS011;8275;48.206;16.340;2024-02-26T06:16:30;5.38;;;3.80;;
16330;SDS011;8275;48.206;16.340;2024-02-26T06:18:58;4.57;;;3.47;;
16330;SDS011;8275;48.206;16.340;2024-02-26T06:21:29;5.45;;;4.57;;
16330;SDS011;8275;48.206;16.340;2024-02-26T06:23:57;4.28;;;3.88;;
16330;SDS011;8275;48.206;16.340;2024-02-26T06:26:26;6.22;;;3.75;;
16330;SDS011;8275;48.206;16.340;2024-02-26T06:28:55;6.18;;;4.35;;
16330;SDS011;8275;48.206;16.340;2024-02-26T06:31:24;4.65;;;4.22;;
16330;SDS011;8275;48.206;16.340;2024-02-26T06:33:54;5.72;;;4.03;;
16330;SDS011;8275;48.206;16.340;2024-02-26T06:36:23;5.85;;;3.05;;
16330;SDS011;8275;48.206;16.340;2024-02-26T06:38:53;7.88;;;4.20;;
16330;SDS011;8275;48.206;16.340;2024-02-26T06:41:22;10.57;;;4.30;;
16330;SDS011;8275;48.206;16.340;2024-02-26T06:43:53;7.95;;;3.97;;
16330;SDS011;8275;48.206;16.340;2024-02-26T06:46:22;7.50;;;3.88;;
16330;SDS011;8275;48.206;16.340;2024-02-26T06:48:50;6.28;;;4.15;;
16330;SDS011;8275;48.206;16.340;2024-02-26T06:51:21;6.45;;;3.67;;
16330;SDS011;8275;48.206;16.340;2024-02-26T06:53:50;4.93;;;4.35;;
16330;SDS011;8275;48.206;16.340;2024-02-26T06:56:19;4.53;;;3.70;;
16330;SDS011;8275;48.206;16.340;2024-02-26T06:58:48;6.75;;;4.50;;
16330;SDS011;8275;48.206;16.340;2024-02-26T07:01:16;8.40;;;3.85;;
16330;SDS011;8275;48.206;16.340;2024-02-26T07:03:45;4.10;;;3.65;;
16330;SDS011;8275;48.206;16.340;2024-02-26T07:06:14;9.43;;;4.45;;
16330;SDS011;8275;48.206;16.340;2024-02-26T07:08:42;4.63;;;4.18;;
16330;SDS011;8275;48.206;16.340;2024-02-26T07:11:11;5.40;;;4.35;;
16330;SDS011;8275;48.206;16.340;2024-02-26T07:13:41;5.30;;;4.00;;
16330;SDS011;8275;48.206;16.340;2024-02-26T07:16:09;6.53;;;4.78;;
16330;SDS011;8275;48.206;16.340;2024-02-26T07:18:38;4.93;;;4.53;;
16330;SDS011;8275;48.206;16.340;2024-02-26T07:21:07;4.38;;;3.97;;
16330;SDS011;8275;48.206;16.340;2024-02-26T07:23:35;4.13;;;3.63;;
16330;SDS011;8275;48.206;16.340;2024-02-26T07:26:03;8.05;;;4.38;;
16330;SDS011;8275;48.206;16.340;2024-02-26T07:28:32;6.43;;;4.43;;
16330;SDS011;8275;48.206;16.340;2024-02-26T07:31:02;5.75;;;3.40;;
16330;SDS011;8275;48.206;16.340;2024-02-26T07:33:31;4.68;;;3.95;;
16330;SDS011;8275;48.206;16.340;2024-02-26T07:36:00;4.50;;;3.97;;
16330;SDS011;8275;48.206;16.340;2024-02-26T07:38:28;4.95;;;4.10;;
16330;SDS011;8275;48.206;16.340;2024-02-26T07:41:08;5.88;;;3.55;;
16330;SDS011;8275;48.206;16.340;2024-02-26T07:43:37;5.32;;;4.05;;
16330;SDS011;8275;48.206;16.340;2024-02-26T07:46:07;4.75;;;3.50;;
16330;SDS011;8275;48.206;16.340;2024-02-26T07:48:35;6.70;;;4.07;;
16330;SDS011;8275;48.206;16.340;2024-02-26T07:51:04;4.28;;;3.70;;
16330;SDS011;8275;48.206;16.340;2024-02-26T07:53:32;6.05;;;3.50;;
16330;SDS011;8275;48.206;16.340;2024-02-26T07:56:01;5.78;;;4.03;;
16330;SDS011;8275;48.206;16.340;2024-02-26T07:58:30;6.53;;;4.75;;
16330;SDS011;8275;48.206;16.340;2024-02-26T08:00:59;9.30;;;4.82;;
16330;SDS011;8275;48.206;16.340;2024-02-26T08:03:30;6.97;;;3.70;;
16330;SDS011;8275;48.206;16.340;2024-02-26T08:05:58;5.00;;;4.50;;
16330;SDS011;8275;48.206;16.340;2024-02-26T08:08:27;4.88;;;4.32;;
16330;SDS011;8275;48.206;16.340;2024-02-26T08:10:55;6.57;;;4.22;;
16330;SDS011;8275;48.206;16.340;2024-02-26T08:13:24;4.13;;;3.63;;
16330;SDS011;8275;48.206;16.340;2024-02-26T08:15:52;4.95;;;4.45;;
16330;SDS011;8275;48.206;16.340;2024-02-26T08:18:21;8.38;;;4.70;;
16330;SDS011;8275;48.206;16.340;2024-02-26T08:20:51;5.60;;;4.65;;
16330;SDS011;8275;48.206;16.340;2024-02-26T08:23:19;6.18;;;4.40;;
16330;SDS011;8275;48.206;16.340;2024-02-26T08:25:48;4.82;;;4.43;;
16330;SDS011;8275;48.206;16.340;2024-02-26T08:28:17;4.43;;;4.03;;
16330;SDS011;8275;48.206;16.340;2024-02-26T08:30:46;6.57;;;4.50;;
16330;SDS011;8275;48.206;16.340;2024-02-26T08:33:14;5.80;;;4.45;;
16330;SDS011;8275;48.206;16.340;2024-02-26T08:35:43;7.78;;;5.25;;
16330;SDS011;8275;48.206;16.340;2024-02-26T08:38:13;3.85;;;3.50;;
16330;SDS011;8275;48.206;16.340;2024-02-26T08:40:42;10.63;;;5.38;;
16330;SDS011;8275;48.206;16.340;2024-02-26T08:43:11;4.10;;;3.70;;
16330;SDS011;8275;48.206;16.340;2024-02-26T08:45:39;8.07;;;3.83;;
16330;SDS011;8275;48.206;16.340;2024-02-26T08:48:08;7.45;;;4.13;;
16330;SDS011;8275;48.206;16.340;2024-02-26T08:50:37;5.18;;;3.72;;
16330;SDS011;8275;48.206;16.340;2024-02-26T08:53:05;5.07;;;3.15;;
16330;SDS011;8275;48.206;16.340;2024-02-26T08:55:35;4.78;;;4.28;;
16330;SDS011;8275;48.206;16.340;2024-02-26T08:58:04;5.22;;;3.70;;
16330;SDS011;8275;48.206;16.340;2024-02-26T09:00:32;2.97;;;2.67;;
16330;SDS011;8275;48.206;16.340;2024-02-26T09:03:01;7.97;;;4.05;;
16330;SDS011;8275;48.206;16.340;2024-02-26T09:05:31;3.53;;;3.22;;
16330;SDS011;8275;48.206;16.340;2024-02-26T09:07:59;4.13;;;3.72;;
16330;SDS011;8275;48.206;16.340;2024-02-26T09:10:29;4.18;;;3.10;;
16330;SDS011;8275;48.206;16.340;2024-02-26T09:13:00;4.97;;;3.80;;
16330;SDS011;8275;48.206;16.340;2024-02-26T09:15:28;4.13;;;3.67;;
16330;SDS011;8275;48.206;16.340;2024-02-26T09:17:57;5.00;;;3.80;;
16330;SDS011;8275;48.206;16.340;2024-02-26T09:20:26;3.30;;;2.83;;
16330;SDS011;8275;48.206;16.340;2024-02-26T09:22:55;8.77;;;3.40;;
16330;SDS011;8275;48.206;16.340;2024-02-26T09:25:23;4.35;;;3.35;;
16330;SDS011;8275;48.206;16.340;2024-02-26T09:27:51;5.32;;;3.15;;
16330;SDS011;8275;48.206;16.340;2024-02-26T09:30:22;3.88;;;2.40;;
16330;SDS011;8275;48.206;16.340;2024-02-26T09:32:50;7.68;;;2.95;;
16330;SDS011;8275;48.206;16.340;2024-02-26T09:35:19;4.25;;;3.30;;
16330;SDS011;8275;48.206;16.340;2024-02-26T09:37:48;3.55;;;2.75;;
16330;SDS011;8275;48.206;16.340;2024-02-26T09:40:17;4.20;;;2.33;;
16330;SDS011;8275;48.206;16.340;2024-02-26T09:42:45;6.28;;;2.83;;
16330;SDS011;8275;48.206;16.340;2024-02-26T09:45:17;4.57;;;2.25;;
16330;SDS011;8275;48.206;16.340;2024-02-26T09:47:50;4.80;;;2.20;;
16330;SDS011;8275;48.206;16.340;2024-02-26T09:50:19;8.35;;;2.45;;
16330;SDS011;8275;48.206;16.340;2024-02-26T09:52:50;3.95;;;2.25;;
16330;SDS011;8275;48.206;16.340;2024-02-26T09:55:19;4.88;;;2.25;;
16330;SDS011;8275;48.206;16.340;2024-02-26T09:57:48;2.30;;;1.88;;
16330;SDS011;8275;48.206;16.340;2024-02-26T10:00:20;4.53;;;2.00;;
16330;SDS011;8275;48.206;16.340;2024-02-26T10:02:51;10.50;;;1.92;;
16330;SDS011;8275;48.206;16.340;2024-02-26T10:05:20;3.45;;;2.70;;
16330;SDS011;8275;48.206;16.340;2024-02-26T10:07:49;3.33;;;2.45;;
16330;SDS011;8275;48.206;16.340;2024-02-26T10:10:19;2.72;;;2.13;;
16330;SDS011;8275;48.206;16.340;2024-02-26T10:12:49;2.38;;;1.98;;
16330;SDS011;8275;48.206;16.340;2024-02-26T10:15:17;5.38;;;2.10;;
16330;SDS011;8275;48.206;16.340;2024-02-26T10:17:46;2.22;;;2.00;;
16330;SDS011;8275;48.206;16.340;2024-02-26T10:20:16;2.53;;;1.85;;
16330;SDS011;8275;48.206;16.340;2024-02-26T10:22:48;6.15;;;2.40;;
16330;SDS011;8275;48.206;16.340;2024-02-26T10:25:18;3.53;;;2.58;;
16330;SDS011;8275;48.206;16.340;2024-02-26T10:27:47;3.30;;;2.97;;
16330;SDS011;8275;48.206;16.340;2024-02-26T10:30:16;1.73;;;1.63;;
16330;SDS011;8275;48.206;16.340;2024-02-26T10:32:46;5.45;;;2.58;;
16330;SDS011;8275;48.206;16.340;2024-02-26T10:35:18;2.28;;;2.08;;
16330;SDS011;8275;48.206;16.340;2024-02-26T10:37:48;1.92;;;1.83;;
16330;SDS011;8275;48.206;16.340;2024-02-26T10:40:17;2.65;;;1.65;;
16330;SDS011;8275;48.206;16.340;2024-02-26T10:42:47;3.40;;;2.92;;
16330;SDS011;8275;48.206;16.340;2024-02-26T10:45:16;3.20;;;2.90;;
16330;SDS011;8275;48.206;16.340;2024-02-26T10:47:45;3.58;;;2.33;;
16330;SDS011;8275;48.206;16.340;2024-02-26T10:50:14;2.17;;;1.73;;
16330;SDS011;8275;48.206;16.340;2024-02-26T10:52:45;2.72;;;2.38;;
16330;SDS011;8275;48.206;16.340;2024-02-26T10:55:15;3.78;;;2.38;;
16330;SDS011;8275;48.206;16.340;2024-02-26T10:57:46;4.18;;;2.00;;
16330;SDS011;8275;48.206;16.340;2024-02-26T11:00:18;3.65;;;3.22;;
16330;SDS011;8275;48.206;16.340;2024-02-26T11:02:47;2.80;;;2.00;;
16330;SDS011;8275;48.206;16.340;2024-02-26T11:05:17;2.92;;;2.42;;
16330;SDS011;8275;48.206;16.340;2024-02-26T11:07:48;2.03;;;1.90;;
16330;SDS011;8275;48.206;16.340;2024-02-26T11:10:17;2.90;;;2.65;;
16330;SDS011;8275;48.206;16.340;2024-02-26T11:12:46;1.90;;;1.80;;
16330;SDS011;8275;48.206;16.340;2024-02-26T11:15:17;2.50;;;1.90;;
16330;SDS011;8275;48.206;16.340;2024-02-26T11:17:46;4.30;;;2.45;;
16330;SDS011;8275;48.206;16.340;2024-02-26T11:20:16;2.85;;;2.47;;
16330;SDS011;8275;48.206;16.340;2024-02-26T11:22:45;3.28;;;2.08;;
16330;SDS011;8275;48.206;16.340;2024-02-26T11:25:15;3.50;;;2.38;;
16330;SDS011;8275;48.206;16.340;2024-02-26T11:27:45;2.80;;;2.33;;
16330;SDS011;8275;48.206;16.340;2024-02-26T11:30:19;1.75;;;1.65;;
16330;SDS011;8275;48.206;16.340;2024-02-26T11:32:49;2.90;;;2.38;;
16330;SDS011;8275;48.206;16.340;2024-02-26T11:35:18;10.07;;;1.83;;
16330;SDS011;8275;48.206;16.340;2024-02-26T11:37:55;1.95;;;1.80;;
16330;SDS011;8275;48.206;16.340;2024-02-26T11:40:24;10.60;;;2.00;;
16330;SDS011;8275;48.206;16.340;2024-02-26T11:42:53;3.15;;;1.98;;
16330;SDS011;8275;48.206;16.340;2024-02-26T11:48:22;1.63;;;1.52;;
16330;SDS011;8275;48.206;16.340;2024-02-26T11:50:53;2.42;;;1.75;;
16330;SDS011;8275;48.206;16.340;2024-02-26T11:53:25;2.60;;;1.42;;
16330;SDS011;8275;48.206;16.340;2024-02-26T11:58:59;2.60;;;1.20;;
16330;SDS011;8275;48.206;16.340;2024-02-26T12:01:36;1.05;;;1.05;;
16330;SDS011;8275;48.206;16.340;2024-02-26T12:04:18;2.08;;;1.10;;
16330;SDS011;8275;48.206;16.340;2024-02-26T12:06:51;4.13;;;2.05;;
16330;SDS011;8275;48.206;16.340;2024-02-26T12:09:32;7.03;;;2.20;;
16330;SDS011;8275;48.206;16.340;2024-02-26T12:12:03;3.08;;;2.20;;
16330;SDS011;8275;48.206;16.340;2024-02-26T12:14:33;2.30;;;2.10;;
16330;SDS011;8275;48.206;16.340;2024-02-26T12:17:04;2.60;;;1.60;;
16330;SDS011;8275;48.206;16.340;2024-02-26T12:19:35;2.30;;;2.08;;
16330;SDS011;8275;48.206;16.340;2024-02-26T12:22:09;1.85;;;1.75;;
16330;SDS011;8275;48.206;16.340;2024-02-26T12:24:43;3.40;;;1.70;;
16330;SDS011;8275;48.206;16.340;2024-02-26T12:27:12;2.92;;;1.80;;
16330;SDS011;8275;48.206;16.340;2024-02-26T12:29:42;1.30;;;1.20;;
16330;SDS011;8275;48.206;16.340;2024-02-26T12:32:10;3.05;;;1.80;;
16330;SDS011;8275;48.206;16.340;2024-02-26T12:34:40;1.70;;;1.50;;
16330;SDS011;8275;48.206;16.340;2024-02-26T12:37:10;1.70;;;1.50;;
16330;SDS011;8275;48.206;16.340;2024-02-26T12:39:39;5.75;;;1.80;;
16330;SDS011;8275;48.206;16.340;2024-02-26T12:42:09;5.07;;;1.60;;
16330;SDS011;8275;48.206;16.340;2024-02-26T12:44:38;1.63;;;1.52;;
16330;SDS011;8275;48.206;16.340;2024-02-26T12:47:06;3.65;;;1.45;;
16330;SDS011;8275;48.206;16.340;2024-02-26T12:49:36;4.10;;;1.90;;
16330;SDS011;8275;48.206;16.340;2024-02-26T12:52:05;1.75;;;1.52;;
16330;SDS011;8275;48.206;16.340;2024-02-26T12:54:34;3.25;;;1.70;;
16330;SDS011;8275;48.206;16.340;2024-02-26T12:57:05;3.58;;;1.70;;
16330;SDS011;8275;48.206;16.340;2024-02-26T12:59:37;2.38;;;2.17;;
16330;SDS011;8275;48.206;16.340;2024-02-26T13:02:06;4.18;;;1.52;;
16330;SDS011;8275;48.206;16.340;2024-02-26T13:04:35;3.70;;;2.28;;
16330;SDS011;8275;48.206;16.340;2024-02-26T13:07:05;2.40;;;1.48;;
16330;SDS011;8275;48.206;16.340;2024-02-26T13:09:34;1.73;;;1.40;;
16330;SDS011;8275;48.206;16.340;2024-02-26T13:12:03;2.30;;;1.70;;
16330;SDS011;8275;48.206;16.340;2024-02-26T13:14:33;3.58;;;2.05;;
16330;SDS011;8275;48.206;16.340;2024-02-26T13:17:03;4.07;;;3.05;;
16330;SDS011;8275;48.206;16.340;2024-02-26T13:19:32;4.32;;;2.72;;
16330;SDS011;8275;48.206;16.340;2024-02-26T13:22:05;7.20;;;2.40;;
16330;SDS011;8275;48.206;16.340;2024-02-26T13:24:34;2.85;;;1.90;;
16330;SDS011;8275;48.206;16.340;2024-02-26T13:27:03;2.20;;;1.70;;
16330;SDS011;8275;48.206;16.340;2024-02-26T13:29:33;2.08;;;1.63;;
16330;SDS011;8275;48.206;16.340;2024-02-26T13:32:03;2.17;;;1.85;;
16330;SDS011;8275;48.206;16.340;2024-02-26T13:34:33;1.52;;;1.42;;
16330;SDS011;8275;48.206;16.340;2024-02-26T13:37:03;1.50;;;1.30;;
16330;SDS011;8275;48.206;16.340;2024-02-26T13:39:32;4.45;;;1.83;;
16330;SDS011;8275;48.206;16.340;2024-02-26T13:42:05;1.90;;;1.45;;
16330;SDS011;8275;48.206;16.340;2024-02-26T13:44:38;5.28;;;1.55;;
16330;SDS011;8275;48.206;16.340;2024-02-26T13:47:09;2.60;;;1.73;;
16330;SDS011;8275;48.206;16.340;2024-02-26T13:49:37;2.42;;;1.65;;
16330;SDS011;8275;48.206;16.340;2024-02-26T13:52:05;2.22;;;1.98;;
16330;SDS011;8275;48.206;16.340;2024-02-26T13:54:34;1.90;;;1.40;;
16330;SDS011;8275;48.206;16.340;2024-02-26T13:57:05;4.85;;;1.60;;
16330;SDS011;8275;48.206;16.340;2024-02-26T13:59:33;1.70;;;1.33;;
16330;SDS011;8275;48.206;16.340;2024-02-26T14:02:02;2.72;;;1.50;;
16330;SDS011;8275;48.206;16.340;2024-02-26T14:04:32;3.35;;;2.05;;
16330;SDS011;8275;48.206;16.340;2024-02-26T14:07:00;2.33;;;1.50;;
16330;SDS011;8275;48.206;16.340;2024-02-26T14:09:30;2.38;;;1.40;;
16330;SDS011;8275;48.206;16.340;2024-02-26T14:12:14;1.48;;;1.33;;
16330;SDS011;8275;48.206;16.340;2024-02-26T14:14:48;3.15;;;1.60;;
16330;SDS011;8275;48.206;16.340;2024-02-26T14:17:19;3.08;;;1.90;;
16330;SDS011;8275;48.206;16.340;2024-02-26T14:19:49;4.22;;;2.33;;
16330;SDS011;8275;48.206;16.340;2024-02-26T14:22:18;3.13;;;1.38;;
16330;SDS011;8275;48.206;16.340;2024-02-26T14:24:46;2.78;;;1.70;;
16330;SDS011;8275;48.206;16.340;2024-02-26T14:27:15;3.58;;;1.70;;
16330;SDS011;8275;48.206;16.340;2024-02-26T14:29:44;1.88;;;1.40;;
16330;SDS011;8275;48.206;16.340;2024-02-26T14:32:12;4.55;;;1.65;;
16330;SDS011;8275;48.206;16.340;2024-02-26T14:34:41;3.03;;;1.58;;
16330;SDS011;8275;48.206;16.340;2024-02-26T14:37:11;2.38;;;1.38;;
16330;SDS011;8275;48.206;16.340;2024-02-26T14:39:39;1.85;;;1.25;;
16330;SDS011;8275;48.206;16.340;2024-02-26T14:42:08;1.55;;;1.30;;
16330;SDS011;8275;48.206;16.340;2024-02-26T14:44:36;4.20;;;1.65;;
16330;SDS011;8275;48.206;16.340;2024-02-26T14:47:05;5.78;;;1.98;;
16330;SDS011;8275;48.206;16.340;2024-02-26T14:49:34;2.38;;;1.95;;
16330;SDS011;8275;48.206;16.340;2024-02-26T14:52:03;3.55;;;1.92;;
16330;SDS011;8275;48.206;16.340;2024-02-26T14:54:33;2.92;;;1.50;;
16330;SDS011;8275;48.206;16.340;2024-02-26T14:57:05;3.90;;;2.13;;
16330;SDS011;8275;48.206;16.340;2024-02-26T14:59:34;3.00;;;1.52;;
16330;SDS011;8275;48.206;16.340;2024-02-26T15:02:03;1.85;;;1.52;;
16330;SDS011;8275;48.206;16.340;2024-02-26T15:04:32;2.00;;;1.50;;
16330;SDS011;8275;48.206;16.340;2024-02-26T15:07:02;3.90;;;2.08;;